createdAt,value
2022-09-28T00:01:17.548Z,2.73
2022-09-28T00:03:47.520Z,3.20
2022-09-28T00:06:18.585Z,3.00
2022-09-28T00:08:46.824Z,3.73
2022-09-28T00:11:18.830Z,3.40
2022-09-28T00:13:50.949Z,2.97
2022-09-28T00:16:24.450Z,4.27
2022-09-28T00:18:52.286Z,3.60
2022-09-28T00:21:22.636Z,3.87
2022-09-28T00:24:12.421Z,3.67
2022-09-28T00:26:45.367Z,3.30
2022-09-28T00:29:32.356Z,3.70
2022-09-28T00:32:02.938Z,3.47
2022-09-28T00:34:33.361Z,3.43
2022-09-28T00:37:02.630Z,4.10
2022-09-28T00:39:32.785Z,3.70
2022-09-28T00:42:02.449Z,3.40
2022-09-28T00:44:40.031Z,3.77
2022-09-28T00:47:42.912Z,4.40
2022-09-28T00:50:20.519Z,3.80
2022-09-28T00:52:54.319Z,3.70
2022-09-28T00:55:34.358Z,4.07
2022-09-28T00:58:07.822Z,3.57
2022-09-28T01:00:35.605Z,3.67
2022-09-28T01:03:04.127Z,4.13
2022-09-28T01:05:33.191Z,3.30
2022-09-28T01:08:03.262Z,3.63
2022-09-28T01:10:31.541Z,2.93
2022-09-28T01:12:59.346Z,3.73
2022-09-28T01:15:30.450Z,3.40
2022-09-28T01:18:13.172Z,3.37
2022-09-28T01:20:57.091Z,3.50
2022-09-28T01:24:19.081Z,3.07
2022-09-28T01:27:13.421Z,2.90
2022-09-28T01:29:52.619Z,3.37
2022-09-28T01:32:36.569Z,3.20
2022-09-28T01:35:11.164Z,3.20
2022-09-28T01:37:47.694Z,3.73
2022-09-28T01:40:16.804Z,3.20
2022-09-28T01:42:51.646Z,4.27
2022-09-28T01:45:28.633Z,3.80
2022-09-28T01:48:02.950Z,4.10
2022-09-28T01:50:37.912Z,3.23
2022-09-28T01:53:15.734Z,3.40
2022-09-28T01:55:47.898Z,3.17
2022-09-28T01:58:28.111Z,3.90
2022-09-28T02:01:06.369Z,4.27
2022-09-28T02:03:42.284Z,3.63
2022-09-28T02:06:18.829Z,4.80
2022-09-28T02:08:51.708Z,4.50
2022-09-28T02:11:21.360Z,4.30
2022-09-28T02:13:56.264Z,4.03
2022-09-28T02:16:36.663Z,4.60
2022-09-28T02:19:06.542Z,4.03
2022-09-28T02:21:43.154Z,4.43
2022-09-28T02:24:22.471Z,4.23
2022-09-28T02:26:53.359Z,4.83
2022-09-28T02:29:22.246Z,4.10
2022-09-28T02:31:51.614Z,4.93
2022-09-28T02:34:18.958Z,3.60
2022-09-28T02:36:47.826Z,4.70
2022-09-28T02:39:17.994Z,5.03
2022-09-28T02:41:58.008Z,4.53
2022-09-28T02:44:49.580Z,3.63
2022-09-28T02:47:34.452Z,5.73
2022-09-28T02:50:15.783Z,5.50
2022-09-28T02:53:19.883Z,5.10
2022-09-28T02:56:07.958Z,6.30
2022-09-28T02:58:50.893Z,6.03
2022-09-28T03:01:29.834Z,4.57
2022-09-28T03:04:10.835Z,4.83
2022-09-28T03:06:46.994Z,4.60
2022-09-28T03:09:22.918Z,5.30
2022-09-28T03:11:56.024Z,6.37
2022-09-28T03:14:23.816Z,5.10
2022-09-28T03:16:52.616Z,5.43
2022-09-28T03:19:26.915Z,5.80
2022-09-28T03:21:55.212Z,5.23
2022-09-28T03:24:22.521Z,5.53
2022-09-28T03:26:49.811Z,5.10
2022-09-28T03:29:17.754Z,5.17
2022-09-28T03:31:45.176Z,5.27
2022-09-28T03:34:13.844Z,4.77
2022-09-28T03:36:41.486Z,5.67
2022-09-28T03:39:08.786Z,5.20
2022-09-28T03:41:36.059Z,5.77
2022-09-28T03:44:03.777Z,5.93
2022-09-28T03:46:31.115Z,5.20
2022-09-28T03:48:59.279Z,5.57
2022-09-28T03:51:28.001Z,5.53
2022-09-28T03:53:55.270Z,5.70
2022-09-28T03:56:22.676Z,5.90
2022-09-28T03:58:49.965Z,5.87
2022-09-28T04:01:18.189Z,5.60
2022-09-28T04:03:46.847Z,5.37
2022-09-28T04:06:14.743Z,5.13
2022-09-28T04:08:43.565Z,6.03
2022-09-28T04:11:11.017Z,5.07
2022-09-28T04:13:38.873Z,6.50
2022-09-28T04:16:06.752Z,6.07
2022-09-28T04:18:34.573Z,5.97
2022-09-28T04:21:06.588Z,5.43
2022-09-28T04:23:35.356Z,5.50
2022-09-28T04:26:05.607Z,5.20
2022-09-28T04:28:51.854Z,5.27
2022-09-28T04:31:22.823Z,4.80
2022-09-28T04:33:50.655Z,4.63
2022-09-28T04:36:19.763Z,4.57
2022-09-28T04:38:53.083Z,4.40
2022-09-28T04:41:22.785Z,4.43
2022-09-28T04:43:50.920Z,4.27
2022-09-28T04:46:19.043Z,4.10
2022-09-28T04:48:46.326Z,4.70
2022-09-28T04:51:13.887Z,4.43
2022-09-28T04:53:41.260Z,4.30
2022-09-28T04:56:11.608Z,4.00
2022-09-28T04:58:41.397Z,4.03
2022-09-28T05:01:12.195Z,4.33
2022-09-28T05:03:39.685Z,4.40
2022-09-28T05:06:08.024Z,4.50
2022-09-28T05:08:35.981Z,4.30
2022-09-28T05:11:07.576Z,3.30
2022-09-28T05:13:45.403Z,3.17
2022-09-28T05:16:16.202Z,3.40
2022-09-28T05:18:43.907Z,2.57
2022-09-28T05:21:13.041Z,2.60
2022-09-28T05:23:40.763Z,2.27
2022-09-28T05:26:08.224Z,1.77
2022-09-28T05:28:38.312Z,2.20
2022-09-28T05:31:07.109Z,2.00
2022-09-28T05:33:34.823Z,2.00
2022-09-28T05:36:02.964Z,2.70
2022-09-28T05:38:30.508Z,2.90
2022-09-28T05:40:57.899Z,2.50
2022-09-28T05:43:25.413Z,2.20
2022-09-28T05:45:55.625Z,2.57
2022-09-28T05:48:25.081Z,2.63
2022-09-28T05:50:53.077Z,2.77
2022-09-28T05:53:20.780Z,2.97
2022-09-28T05:55:48.812Z,2.77
2022-09-28T05:58:16.869Z,2.80
2022-09-28T06:00:44.446Z,2.87
2022-09-28T06:03:14.319Z,3.10
2022-09-28T06:05:43.017Z,2.80
2022-09-28T06:08:11.588Z,2.40
2022-09-28T06:10:39.479Z,2.40
2022-09-28T06:13:07.655Z,2.43
2022-09-28T06:15:36.453Z,2.80
2022-09-28T06:18:06.485Z,2.63
2022-09-28T06:20:36.352Z,3.03
2022-09-28T06:23:05.216Z,2.60
2022-09-28T06:25:32.683Z,2.43
2022-09-28T06:28:02.294Z,3.70
2022-09-28T06:30:32.918Z,2.60
2022-09-28T06:33:02.080Z,2.10
2022-09-28T06:35:31.392Z,2.70
2022-09-28T06:38:00.574Z,3.63
2022-09-28T06:40:29.574Z,5.90
2022-09-28T06:42:58.936Z,2.40
2022-09-28T06:45:28.593Z,2.80
2022-09-28T06:47:58.532Z,3.03
2022-09-28T06:50:27.758Z,3.30
2022-09-28T06:52:57.210Z,4.33
2022-09-28T06:55:25.822Z,5.87
2022-09-28T06:58:00.373Z,4.57
2022-09-28T07:00:29.513Z,3.57
2022-09-28T07:02:57.009Z,3.20
2022-09-28T07:05:27.388Z,5.10
2022-09-28T07:07:58.054Z,3.07
2022-09-28T07:10:30.252Z,2.70
2022-09-28T07:13:04.779Z,2.97
2022-09-28T07:15:33.020Z,2.33
2022-09-28T07:18:03.980Z,2.33
2022-09-28T07:20:44.596Z,2.10
2022-09-28T07:23:19.824Z,1.70
2022-09-28T07:25:49.622Z,2.20
2022-09-28T07:28:18.560Z,2.60
2022-09-28T07:30:45.934Z,2.60
2022-09-28T07:33:15.853Z,2.60
2022-09-28T07:35:51.021Z,2.87
2022-09-28T07:38:19.032Z,2.90
2022-09-28T07:41:05.278Z,2.70
2022-09-28T07:43:33.995Z,6.70
2022-09-28T07:46:01.423Z,3.83
2022-09-28T07:48:28.805Z,2.20
2022-09-28T07:50:57.432Z,2.83
2022-09-28T07:53:25.974Z,2.40
2022-09-28T07:55:54.550Z,2.47
2022-09-28T07:58:22.874Z,2.33
2022-09-28T08:00:51.902Z,2.00
2022-09-28T08:03:23.985Z,1.90
2022-09-28T08:05:58.870Z,2.07
2022-09-28T08:08:27.475Z,3.37
2022-09-28T08:13:28.951Z,3.17
2022-09-28T08:16:02.328Z,4.47
2022-09-28T08:18:30.151Z,4.80
2022-09-28T08:21:17.933Z,2.93
2022-09-28T08:23:45.267Z,2.47
2022-09-28T08:26:15.571Z,2.10
2022-09-28T08:28:43.646Z,2.60
2022-09-28T08:31:12.479Z,3.60
2022-09-28T08:33:42.137Z,3.53
2022-09-28T08:36:10.703Z,2.67
2022-09-28T08:38:38.339Z,3.10
2022-09-28T08:41:18.804Z,3.50
2022-09-28T08:44:11.610Z,4.87
2022-09-28T08:46:47.913Z,6.17
2022-09-28T08:49:30.578Z,4.03
2022-09-28T08:52:03.709Z,3.60
2022-09-28T08:54:40.075Z,5.00
2022-09-28T08:57:15.629Z,5.07
2022-09-28T08:59:51.372Z,3.90
2022-09-28T09:02:29.417Z,3.63
2022-09-28T09:04:58.784Z,3.43
2022-09-28T09:07:56.951Z,2.60
2022-09-28T09:10:48.161Z,4.97
2022-09-28T09:13:45.732Z,5.40
2022-09-28T09:16:30.654Z,5.13
2022-09-28T09:19:15.149Z,5.73
2022-09-28T09:21:51.944Z,5.17
2022-09-28T09:24:27.347Z,7.13
2022-09-28T09:27:13.068Z,4.90
2022-09-28T09:30:04.459Z,5.37
2022-09-28T09:33:07.021Z,6.13
2022-09-28T09:36:12.273Z,6.10
2022-09-28T09:39:02.454Z,5.87
2022-09-28T09:41:49.206Z,6.60
2022-09-28T09:44:57.979Z,5.57
2022-09-28T09:47:33.903Z,6.90
2022-09-28T09:50:12.229Z,6.07
2022-09-28T09:52:55.024Z,6.30
2022-09-28T09:55:30.241Z,6.77
2022-09-28T09:58:10.022Z,7.57
2022-09-28T10:00:42.642Z,6.87
2022-09-28T10:03:22.304Z,6.83
2022-09-28T10:05:58.280Z,9.20
2022-09-28T10:08:29.395Z,8.40
2022-09-28T10:11:10.201Z,9.30
2022-09-28T10:13:37.475Z,17.83
2022-09-28T10:16:07.591Z,10.97
2022-09-28T10:18:36.694Z,9.97
2022-09-28T10:21:06.375Z,10.73
2022-09-28T10:23:39.302Z,11.50
2022-09-28T10:26:15.164Z,11.07
2022-09-28T10:28:51.902Z,11.93
2022-09-28T10:31:36.698Z,10.23
2022-09-28T10:34:07.802Z,10.77
2022-09-28T10:36:56.056Z,11.47
2022-09-28T10:39:47.516Z,13.10
2022-09-28T10:42:22.242Z,12.87
2022-09-28T10:44:55.388Z,13.77
2022-09-28T10:47:26.138Z,11.67
2022-09-28T10:49:55.815Z,12.40
2022-09-28T10:52:41.936Z,10.60
2022-09-28T10:55:37.056Z,9.93
2022-09-28T10:58:42.149Z,12.13
2022-09-28T11:01:15.328Z,11.67
2022-09-28T11:03:55.365Z,11.80
2022-09-28T11:06:28.963Z,10.70
2022-09-28T11:09:00.763Z,13.53
2022-09-28T11:11:31.477Z,11.90
2022-09-28T11:14:01.972Z,12.23
2022-09-28T11:16:31.878Z,10.87
2022-09-28T11:19:05.147Z,9.80
2022-09-28T11:21:43.401Z,11.63
2022-09-28T11:24:21.026Z,11.03
2022-09-28T11:26:53.360Z,10.17
2022-09-28T11:29:26.807Z,10.20
2022-09-28T11:32:00.124Z,9.87
2022-09-28T11:34:58.165Z,10.20
2022-09-28T11:37:53.555Z,9.63
2022-09-28T11:40:43.321Z,9.30
2022-09-28T11:43:24.892Z,10.20
2022-09-28T11:46:08.477Z,17.03
2022-09-28T11:48:45.965Z,10.67
2022-09-28T11:51:24.882Z,10.10
2022-09-28T11:53:59.635Z,9.80
2022-09-28T11:56:40.827Z,9.20
2022-09-28T11:59:20.865Z,8.97
2022-09-28T12:01:55.668Z,9.10
2022-09-28T12:04:31.970Z,8.53
2022-09-28T12:07:07.590Z,9.90
2022-09-28T12:09:43.454Z,9.07
2022-09-28T12:12:22.393Z,8.23
2022-09-28T12:15:02.886Z,8.67
2022-09-28T12:17:38.826Z,8.07
2022-09-28T12:20:19.304Z,8.30
2022-09-28T12:23:03.958Z,7.13
2022-09-28T12:25:42.980Z,7.10
2022-09-28T12:28:24.954Z,8.67
2022-09-28T12:30:56.553Z,7.53
2022-09-28T12:33:23.869Z,7.20
2022-09-28T12:36:14.373Z,7.47
2022-09-28T12:39:40.957Z,7.10
2022-09-28T12:42:16.521Z,7.57
2022-09-28T12:45:20.013Z,7.30
2022-09-28T12:48:32.117Z,7.03
2022-09-28T12:51:15.889Z,5.93
2022-09-28T12:54:08.184Z,6.60
2022-09-28T12:56:47.726Z,6.27
2022-09-28T12:59:29.027Z,5.40
2022-09-28T13:02:37.260Z,5.10
2022-09-28T13:05:32.648Z,4.70
2022-09-28T13:08:11.427Z,4.87
2022-09-28T13:10:48.785Z,5.10
2022-09-28T13:13:34.607Z,5.87
2022-09-28T13:16:17.579Z,6.33
2022-09-28T13:19:00.822Z,28.50
2022-09-28T13:21:41.412Z,5.67
2022-09-28T13:24:32.188Z,5.40
2022-09-28T13:27:10.671Z,7.03
2022-09-28T13:32:13.962Z,5.77
2022-09-28T13:34:41.794Z,6.20
2022-09-28T13:37:21.955Z,5.20
2022-09-28T13:39:52.704Z,4.23
2022-09-28T13:43:10.301Z,5.07
2022-09-28T13:45:54.004Z,4.13
2022-09-28T13:48:34.407Z,4.30
2022-09-28T13:51:31.897Z,4.50
2022-09-28T13:54:29.938Z,7.47
2022-09-28T13:57:18.310Z,3.73
2022-09-28T14:00:01.491Z,6.40
2022-09-28T14:02:42.066Z,4.40
2022-09-28T14:05:47.784Z,3.63
2022-09-28T14:08:36.634Z,4.40
2022-09-28T14:11:55.634Z,5.00
2022-09-28T14:14:47.215Z,4.43
2022-09-28T14:18:00.015Z,4.47
2022-09-28T14:20:31.490Z,4.23
2022-09-28T14:23:36.904Z,3.80
2022-09-28T14:26:41.905Z,3.47
2022-09-28T14:29:28.782Z,4.87
2022-09-28T14:31:59.060Z,4.63
2022-09-28T14:34:34.971Z,4.40
2022-09-28T14:37:24.690Z,4.90
2022-09-28T14:40:10.333Z,4.00
2022-09-28T14:42:38.115Z,4.80
2022-09-28T14:45:36.431Z,4.80
2022-09-28T14:48:19.806Z,4.37
2022-09-28T14:50:50.301Z,3.97
2022-09-28T14:53:24.866Z,4.33
2022-09-28T14:55:57.832Z,3.90
2022-09-28T14:58:28.181Z,4.07
2022-09-28T15:01:07.995Z,4.13
2022-09-28T15:03:41.795Z,3.53
2022-09-28T15:06:19.749Z,3.73
2022-09-28T15:08:47.063Z,3.77
2022-09-28T15:11:20.010Z,3.50
2022-09-28T15:13:47.349Z,3.33
2022-09-28T15:16:17.800Z,3.97
2022-09-28T15:19:22.820Z,3.53
2022-09-28T15:21:51.265Z,3.50
2022-09-28T15:24:34.176Z,4.20
2022-09-28T15:27:04.222Z,3.97
2022-09-28T15:29:33.506Z,3.10
2022-09-28T15:32:02.699Z,3.00
2022-09-28T15:34:51.254Z,2.97
2022-09-28T15:37:22.925Z,3.67
2022-09-28T15:39:52.623Z,3.67
2022-09-28T15:42:21.072Z,4.47
2022-09-28T15:45:22.377Z,3.33
2022-09-28T15:47:57.675Z,4.20
2022-09-28T15:50:28.713Z,3.67
2022-09-28T15:53:01.126Z,4.50
2022-09-28T15:55:31.910Z,3.57
2022-09-28T15:58:17.867Z,3.93
2022-09-28T16:00:47.614Z,3.17
2022-09-28T16:03:29.674Z,3.80
2022-09-28T16:06:08.178Z,4.03
2022-09-28T16:08:41.254Z,3.70
2022-09-28T16:11:16.267Z,3.73
2022-09-28T16:14:02.057Z,10.77
2022-09-28T16:16:35.297Z,11.80
2022-09-28T16:19:05.004Z,4.70
2022-09-28T16:21:44.232Z,15.30
2022-09-28T16:24:22.800Z,3.10
2022-09-28T16:26:58.513Z,5.87
2022-09-28T16:29:32.976Z,3.50
2022-09-28T16:32:38.443Z,3.40
2022-09-28T16:35:22.853Z,3.07
2022-09-28T16:38:10.536Z,3.57
2022-09-28T16:40:43.434Z,4.10
2022-09-28T16:43:26.912Z,5.87
2022-09-28T16:45:57.925Z,4.93
2022-09-28T16:48:28.946Z,4.83
2022-09-28T16:51:15.534Z,4.67
2022-09-28T16:54:01.820Z,4.87
2022-09-28T16:56:30.024Z,5.30
2022-09-28T16:58:57.487Z,5.23
2022-09-28T17:01:25.160Z,5.80
2022-09-28T17:03:52.648Z,6.10
2022-09-28T17:06:25.260Z,4.97
2022-09-28T17:08:54.300Z,5.80
2022-09-28T17:11:24.483Z,5.83
2022-09-28T17:13:56.864Z,5.47
2022-09-28T17:19:22.456Z,6.33
2022-09-28T17:21:53.282Z,6.70
2022-09-28T17:24:20.882Z,7.10
2022-09-28T17:26:50.943Z,7.17
2022-09-28T17:29:19.426Z,7.37
2022-09-28T17:31:48.059Z,6.83
2022-09-28T17:34:16.940Z,18.80
2022-09-28T17:36:45.522Z,8.93
2022-09-28T17:39:16.897Z,8.30
2022-09-28T17:41:44.549Z,7.40
2022-09-28T17:44:15.056Z,8.13
2022-09-28T17:46:49.382Z,7.80
2022-09-28T17:49:17.278Z,9.13
2022-09-28T17:51:44.635Z,7.90
2022-09-28T17:54:16.674Z,7.80
2022-09-28T17:56:44.103Z,8.73
2022-09-28T17:59:16.191Z,8.40
2022-09-28T18:01:43.641Z,9.43
2022-09-28T18:04:33.284Z,14.10
2022-09-28T18:07:00.742Z,10.47
2022-09-28T18:09:29.607Z,10.03
2022-09-28T18:12:04.239Z,10.40
2022-09-28T18:14:31.440Z,10.47
2022-09-28T18:16:58.765Z,11.00
2022-09-28T18:19:31.747Z,11.97
2022-09-28T18:21:59.652Z,11.17
2022-09-28T18:24:26.924Z,12.03
2022-09-28T18:26:55.570Z,12.10
2022-09-28T18:29:22.881Z,10.47
2022-09-28T18:31:50.247Z,11.13
2022-09-28T18:34:17.785Z,10.50
2022-09-28T18:36:45.529Z,12.40
2022-09-28T18:39:12.841Z,11.80
2022-09-28T18:41:41.501Z,11.53
2022-09-28T18:44:10.458Z,12.33
2022-09-28T18:46:38.038Z,11.20
2022-09-28T18:49:05.420Z,11.57
2022-09-28T18:51:32.747Z,10.27
2022-09-28T18:54:06.595Z,11.60
2022-09-28T18:56:37.284Z,12.03
2022-09-28T18:59:08.727Z,11.87
2022-09-28T19:01:41.993Z,11.33
2022-09-28T19:04:11.741Z,12.53
2022-09-28T19:06:41.239Z,10.73
2022-09-28T19:09:09.406Z,11.83
2022-09-28T19:11:37.169Z,12.53
2022-09-28T19:14:04.504Z,11.53
2022-09-28T19:16:34.053Z,11.63
2022-09-28T19:19:03.311Z,11.17
2022-09-28T19:21:30.731Z,10.67
2022-09-28T19:24:02.047Z,11.17
2022-09-28T19:26:30.403Z,11.37
2022-09-28T19:28:59.102Z,11.40
2022-09-28T19:31:27.182Z,12.07
2022-09-28T19:33:54.476Z,10.67
2022-09-28T19:36:25.797Z,11.63
2022-09-28T19:38:53.576Z,11.07
2022-09-28T19:41:43.435Z,11.07
2022-09-28T19:44:15.698Z,10.97
2022-09-28T19:46:43.660Z,11.90
2022-09-28T19:49:13.667Z,11.40
2022-09-28T19:52:01.721Z,11.20
2022-09-28T19:54:36.140Z,11.50
2022-09-28T19:57:07.868Z,11.30
2022-09-28T19:59:36.585Z,10.80
2022-09-28T20:02:05.258Z,11.27
2022-09-28T20:04:32.749Z,10.27
2022-09-28T20:07:01.855Z,11.10
2022-09-28T20:09:29.336Z,11.20
2022-09-28T20:11:57.196Z,10.93
2022-09-28T20:14:25.981Z,10.20
2022-09-28T20:16:58.065Z,11.27
2022-09-28T20:19:26.201Z,12.00
2022-09-28T20:21:53.857Z,10.80
2022-09-28T20:24:22.525Z,11.40
2022-09-28T20:26:49.817Z,11.83
2022-09-28T20:29:17.523Z,11.70
2022-09-28T20:31:45.637Z,11.23
2022-09-28T20:34:13.368Z,11.20
2022-09-28T20:36:42.412Z,11.70
2022-09-28T20:39:10.922Z,11.93
2022-09-28T20:41:40.219Z,11.40
2022-09-28T20:44:07.776Z,12.50
2022-09-28T20:46:35.918Z,11.13
2022-09-28T20:49:04.177Z,10.90
2022-09-28T20:51:31.807Z,11.40
2022-09-28T20:53:59.558Z,10.43
2022-09-28T20:56:28.855Z,10.93
2022-09-28T20:58:57.733Z,10.90
2022-09-28T21:01:27.186Z,10.67
2022-09-28T21:03:57.366Z,11.27
2022-09-28T21:06:27.587Z,10.87
2022-09-28T21:08:55.248Z,10.20
2022-09-28T21:11:25.062Z,11.17
2022-09-28T21:13:54.617Z,9.97
2022-09-28T21:16:23.713Z,11.87
2022-09-28T21:18:51.004Z,10.47
2022-09-28T21:21:21.259Z,11.93
2022-09-28T21:23:51.644Z,10.80
2022-09-28T21:26:27.213Z,10.43
2022-09-28T21:28:55.559Z,9.87
2022-09-28T21:31:29.394Z,10.87
2022-09-28T21:33:57.648Z,10.20
2022-09-28T21:36:25.869Z,9.87
2022-09-28T21:38:54.464Z,10.70
2022-09-28T21:41:21.842Z,10.70
2022-09-28T21:43:49.107Z,10.57
2022-09-28T21:46:17.614Z,10.03
2022-09-28T21:48:46.375Z,10.73
2022-09-28T21:51:15.273Z,9.50
2022-09-28T21:53:42.867Z,11.20
2022-09-28T21:56:12.585Z,11.00
2022-09-28T21:58:40.669Z,9.47
2022-09-28T22:01:14.626Z,10.33
2022-09-28T22:03:46.639Z,10.17
2022-09-28T22:06:15.751Z,9.20
2022-09-28T22:08:43.237Z,10.33
2022-09-28T22:11:13.308Z,10.87
2022-09-28T22:13:43.533Z,10.10
2022-09-28T22:16:13.626Z,10.03
2022-09-28T22:18:41.661Z,10.50
2022-09-28T22:21:14.262Z,10.10
2022-09-28T22:23:42.160Z,9.20
2022-09-28T22:26:12.583Z,9.47
2022-09-28T22:28:45.785Z,7.67
2022-09-28T22:31:13.112Z,9.10
2022-09-28T22:33:40.454Z,9.40
2022-09-28T22:36:09.789Z,10.50
2022-09-28T22:38:37.654Z,9.40
2022-09-28T22:41:05.022Z,10.50
2022-09-28T22:43:32.791Z,10.07
2022-09-28T22:46:05.740Z,9.90
2022-09-28T22:48:34.815Z,9.83
2022-09-28T22:51:03.763Z,8.97
2022-09-28T22:53:33.209Z,9.10
2022-09-28T22:56:04.008Z,9.47
2022-09-28T22:58:31.371Z,9.53
2022-09-28T23:01:06.602Z,10.50
2022-09-28T23:03:34.824Z,9.53
2022-09-28T23:06:02.161Z,9.97
2022-09-28T23:08:29.536Z,9.20
2022-09-28T23:10:58.190Z,8.83
2022-09-28T23:13:25.629Z,10.37
2022-09-28T23:15:58.205Z,9.77
2022-09-28T23:18:28.684Z,9.43
2022-09-28T23:20:58.265Z,9.47
2022-09-28T23:23:26.658Z,9.10
2022-09-28T23:25:54.661Z,9.63
2022-09-28T23:28:26.261Z,9.20
2022-09-28T23:30:54.697Z,9.73
2022-09-28T23:33:22.566Z,9.20
2022-09-28T23:35:49.912Z,9.77
2022-09-28T23:38:18.482Z,10.43
2022-09-28T23:40:46.663Z,9.43
2022-09-28T23:43:14.732Z,9.90
2022-09-28T23:45:44.446Z,9.13
2022-09-28T23:48:12.802Z,9.83
2022-09-28T23:50:40.313Z,9.47
2022-09-28T23:53:07.723Z,9.37
2022-09-28T23:55:35.002Z,9.87
2022-09-28T23:58:02.255Z,9.43
